Time;durP1;ratioP1;P1;durP2;ratioP2;P2;SDS_P1;SDS_P2;PMS_P1;PMS_P2;Temp;Humidity;BMP_temperature;BMP_pressure;BME280_temperature;BME280_humidity;BME280_pressure;Samples;Min_cycle;Max_cycle;Signal;HPM_P1;HPM_P2
2021/07/19 00:00:16;;;;;;;1.50;1.40;;;28.70;69.60;;;;;;5105411;28;20032;-41
2021/07/19 00:02:43;;;;;;;1.50;1.40;;;28.70;69.60;;;;;;5085557;28;20050;-42
2021/07/19 00:05:11;;;;;;;1.48;1.38;;;28.70;69.50;;;;;;5085522;28;20043;-42
2021/07/19 00:07:37;;;;;;;1.70;1.27;;;28.70;69.60;;;;;;5084913;28;20107;-42
2021/07/19 00:10:07;;;;;;;1.95;1.23;;;28.70;69.60;;;;;;5085583;28;20024;-41
2021/07/19 00:12:34;;;;;;;1.25;1.15;;;28.70;69.60;;;;;;5085050;28;20037;-40
2021/07/19 00:15:00;;;;;;;1.40;1.30;;;28.70;69.60;;;;;;5085102;28;20059;-42
2021/07/19 00:17:26;;;;;;;1.60;1.30;;;28.70;69.60;;;;;;5085028;28;20280;-41
2021/07/19 00:19:52;;;;;;;1.40;1.30;;;28.70;69.60;;;;;;5084520;28;20044;-41
2021/07/19 00:22:18;;;;;;;1.40;1.30;;;28.70;69.60;;;;;;5067126;28;20115;-41
2021/07/19 00:24:45;;;;;;;1.23;1.13;;;28.70;69.60;;;;;;5090495;28;20020;-41
2021/07/19 00:27:11;;;;;;;1.50;1.10;;;28.60;69.60;;;;;;5086568;28;20568;-41
2021/07/19 00:29:37;;;;;;;1.40;1.30;;;28.60;69.60;;;;;;5105035;28;20279;-41
2021/07/19 00:32:04;;;;;;;1.30;1.20;;;28.60;69.60;;;;;;5105354;28;20034;-42
2021/07/19 00:34:30;;;;;;;1.30;1.20;;;28.60;69.60;;;;;;5105465;28;20385;-42
2021/07/19 00:36:57;;;;;;;1.40;1.30;;;28.60;69.60;;;;;;5104564;28;20059;-41
2021/07/19 00:39:23;;;;;;;1.40;1.30;;;28.60;69.60;;;;;;5105210;28;20052;-41
2021/07/19 00:41:50;;;;;;;1.42;1.20;;;28.60;69.70;;;;;;5104794;28;20512;-42
2021/07/19 00:44:19;;;;;;;1.40;1.30;;;28.60;69.70;;;;;;5104912;28;20028;-42
2021/07/19 00:46:50;;;;;;;1.50;1.40;;;28.60;69.70;;;;;;5104682;28;20028;-41
2021/07/19 00:49:16;;;;;;;1.75;1.55;;;28.50;69.60;;;;;;5104375;28;20043;-41
2021/07/19 00:51:42;;;;;;;2.05;1.27;;;28.50;69.60;;;;;;5086787;28;20024;-42
2021/07/19 00:54:09;;;;;;;1.55;1.40;;;28.50;69.60;;;;;;5104599;28;20510;-41
2021/07/19 00:56:37;;;;;;;1.40;1.23;;;28.50;69.60;;;;;;5086253;28;20117;-41
2021/07/19 00:59:03;;;;;;;1.48;1.30;;;28.50;69.60;;;;;;5104584;28;20131;-41
2021/07/19 01:01:29;;;;;;;1.27;1.10;;;28.50;69.70;;;;;;5093614;28;20687;-41
2021/07/19 01:03:56;;;;;;;1.37;1.17;;;28.50;69.70;;;;;;5066220;28;20269;-41
2021/07/19 01:06:22;;;;;;;1.40;1.30;;;28.50;69.70;;;;;;5066085;28;20482;-42
2021/07/19 01:08:51;;;;;;;3.08;1.20;;;28.40;69.60;;;;;;5065795;28;20101;-41
2021/07/19 01:11:18;;;;;;;1.27;1.02;;;28.40;69.70;;;;;;5066188;28;20029;-43
2021/07/19 01:13:44;;;;;;;1.27;1.17;;;28.40;69.60;;;;;;5066167;28;20028;-42
2021/07/19 01:16:11;;;;;;;1.30;1.20;;;28.40;69.70;;;;;;5084068;28;20031;-41
2021/07/19 01:18:37;;;;;;;1.55;1.25;;;28.40;69.60;;;;;;5082268;28;20306;-41
2021/07/19 01:21:03;;;;;;;1.40;1.30;;;28.40;69.70;;;;;;5104192;28;20093;-42
2021/07/19 01:23:39;;;;;;;1.77;1.20;;;28.40;69.70;;;;;;5103764;28;20110;-43
2021/07/19 01:26:42;;;;;;;1.50;1.30;;;28.40;69.80;;;;;;5085847;28;20024;-41
2021/07/19 01:29:08;;;;;;;1.67;1.40;;;28.40;69.70;;;;;;5087480;28;20051;-42
2021/07/19 01:31:41;;;;;;;1.40;1.30;;;28.30;69.70;;;;;;5099367;28;20029;-41
2021/07/19 01:34:16;;;;;;;0.95;0.95;;;28.30;69.80;;;;;;5083672;28;20032;-44
2021/07/19 01:36:45;;;;;;;1.63;1.50;;;28.30;69.80;;;;;;5082890;28;20021;-41
2021/07/19 01:39:12;;;;;;;1.30;1.20;;;28.30;69.80;;;;;;5083423;28;20032;-42
2021/07/19 01:41:38;;;;;;;1.40;1.27;;;28.30;69.70;;;;;;5100800;28;20035;-43
2021/07/19 01:44:07;;;;;;;1.57;1.47;;;28.30;69.80;;;;;;5085284;28;20754;-42
2021/07/19 01:46:33;;;;;;;2.40;1.10;;;28.30;69.80;;;;;;5069287;28;20024;-41
2021/07/19 01:49:00;;;;;;;1.40;1.30;;;28.30;69.80;;;;;;5103205;28;20040;-41
2021/07/19 01:51:26;;;;;;;1.38;1.27;;;28.30;69.80;;;;;;5068963;28;20032;-41
2021/07/19 01:53:53;;;;;;;1.40;1.30;;;28.30;69.80;;;;;;5085246;28;20046;-43
2021/07/19 01:56:19;;;;;;;1.60;1.50;;;28.20;69.60;;;;;;5103654;28;20024;-42
2021/07/19 01:58:45;;;;;;;1.83;1.33;;;28.20;69.70;;;;;;5102919;28;20452;-42
2021/07/19 02:01:12;;;;;;;1.52;1.35;;;28.20;69.70;;;;;;5084438;28;20032;-42
2021/07/19 02:03:38;;;;;;;1.65;1.55;;;28.20;69.60;;;;;;5103410;28;20128;-42
2021/07/19 02:06:05;;;;;;;1.40;1.30;;;28.20;69.70;;;;;;5103160;28;20604;-43
2021/07/19 02:08:32;;;;;;;1.60;1.50;;;28.20;69.80;;;;;;5103349;28;20351;-42
2021/07/19 02:10:58;;;;;;;1.65;1.40;;;28.20;69.70;;;;;;5084863;28;20030;-42
2021/07/19 02:13:25;;;;;;;1.52;1.42;;;28.20;69.60;;;;;;5084948;28;20024;-42
2021/07/19 02:15:52;;;;;;;1.30;1.20;;;28.20;69.70;;;;;;5103141;28;20074;-42
2021/07/19 02:18:20;;;;;;;2.28;1.40;;;28.10;69.70;;;;;;5103030;28;20044;-43
2021/07/19 02:20:46;;;;;;;2.45;1.23;;;28.10;69.70;;;;;;5068250;28;20024;-42
2021/07/19 02:23:14;;;;;;;1.67;1.10;;;28.10;69.60;;;;;;5084745;28;20028;-42
2021/07/19 02:25:40;;;;;;;2.05;1.30;;;28.10;69.60;;;;;;5102047;28;20053;-42
2021/07/19 02:28:08;;;;;;;2.08;1.20;;;28.10;69.70;;;;;;5068043;28;20542;-42
2021/07/19 02:30:34;;;;;;;1.42;1.15;;;28.10;69.60;;;;;;5084402;28;20457;-42
2021/07/19 02:33:00;;;;;;;3.70;1.20;;;28.10;69.60;;;;;;5067666;28;20060;-42
2021/07/19 02:35:26;;;;;;;2.27;1.30;;;28.00;69.70;;;;;;5064513;28;20033;-43
2021/07/19 02:37:56;;;;;;;1.60;1.20;;;28.00;70.20;;;;;;5064689;28;20058;-42
2021/07/19 02:40:23;;;;;;;1.58;1.30;;;28.00;69.50;;;;;;5064255;28;20037;-42
2021/07/19 02:42:51;;;;;;;1.92;1.30;;;28.00;69.50;;;;;;5063953;28;20021;-42
2021/07/19 02:45:18;;;;;;;2.00;1.40;;;28.00;69.50;;;;;;5064596;28;20039;-42
2021/07/19 02:47:44;;;;;;;2.03;1.25;;;28.00;69.50;;;;;;5069970;28;20024;-42
2021/07/19 02:50:15;;;;;;;1.38;1.27;;;28.00;69.60;;;;;;5084427;28;20044;-42
2021/07/19 02:52:41;;;;;;;1.48;1.38;;;28.00;69.60;;;;;;5085272;28;20048;-42
2021/07/19 02:55:08;;;;;;;1.50;1.30;;;28.00;69.70;;;;;;5102824;28;20091;-42
2021/07/19 02:57:37;;;;;;;2.38;1.55;;;28.00;69.60;;;;;;5102402;28;20043;-43
2021/07/19 03:00:13;;;;;;;3.85;1.52;;;27.90;69.50;;;;;;5102554;28;20078;-42
2021/07/19 03:02:46;;;;;;;1.58;1.48;;;27.90;69.50;;;;;;5096462;28;20035;-42
2021/07/19 03:05:13;;;;;;;1.70;1.30;;;28.00;69.70;;;;;;5068354;28;20036;-42
2021/07/19 03:07:39;;;;;;;2.03;1.50;;;27.90;69.60;;;;;;5084416;28;20115;-42
2021/07/19 03:10:08;;;;;;;2.45;1.23;;;27.90;69.60;;;;;;5067628;28;20036;-42
2021/07/19 03:12:36;;;;;;;1.65;1.45;;;27.90;69.60;;;;;;5067890;28;20046;-42
2021/07/19 03:15:03;;;;;;;1.60;1.50;;;27.90;69.50;;;;;;5083978;28;20032;-42
2021/07/19 03:17:29;;;;;;;3.67;1.50;;;27.90;69.50;;;;;;5102293;28;20027;-42
2021/07/19 03:19:56;;;;;;;3.10;1.63;;;27.90;69.60;;;;;;5084241;28;20036;-42
2021/07/19 03:22:22;;;;;;;1.95;1.30;;;27.90;69.50;;;;;;5083717;28;20465;-42
2021/07/19 03:24:50;;;;;;;2.28;1.60;;;27.80;69.50;;;;;;5067286;28;20497;-42
2021/07/19 03:27:16;;;;;;;2.28;1.25;;;27.80;69.50;;;;;;5084452;28;20056;-42
2021/07/19 03:29:42;;;;;;;2.00;1.43;;;27.80;69.50;;;;;;5084146;28;20039;-42
2021/07/19 03:32:08;;;;;;;2.03;1.70;;;27.80;69.50;;;;;;5057194;28;20057;-42
2021/07/19 03:34:36;;;;;;;1.45;1.35;;;27.80;70.30;;;;;;5063814;28;20268;-43
2021/07/19 03:37:02;;;;;;;1.58;1.40;;;27.80;69.60;;;;;;5063985;28;20088;-43
2021/07/19 03:39:28;;;;;;;2.33;1.63;;;27.70;69.50;;;;;;5063974;28;20025;-42
2021/07/19 03:41:54;;;;;;;1.95;1.33;;;27.80;69.60;;;;;;5063792;28;20123;-42
2021/07/19 03:44:20;;;;;;;1.57;1.47;;;27.70;69.50;;;;;;5063917;28;20032;-43
2021/07/19 03:46:47;;;;;;;2.07;1.63;;;27.70;69.60;;;;;;5063589;28;20037;-42
2021/07/19 03:49:14;;;;;;;2.33;1.43;;;27.70;69.60;;;;;;5063814;28;20062;-43
2021/07/19 03:51:41;;;;;;;;;;;27.70;69.50;;;;;;5076745;28;20088;-42
2021/07/19 03:54:08;;;;;;;1.90;1.30;;;27.70;69.50;;;;;;5102347;28;19904;-42
2021/07/19 03:56:35;;;;;;;1.70;1.50;;;27.70;69.60;;;;;;5071077;28;20084;-41
2021/07/19 03:59:02;;;;;;;2.17;1.35;;;27.70;69.50;;;;;;5071041;28;20044;-42
2021/07/19 04:01:28;;;;;;;3.47;1.70;;;27.70;69.50;;;;;;5065917;28;20080;-42
2021/07/19 04:03:55;;;;;;;2.10;1.50;;;27.70;69.60;;;;;;5067139;28;20086;-42
2021/07/19 04:06:22;;;;;;;3.45;1.40;;;27.70;69.60;;;;;;5067412;28;20020;-42
2021/07/19 04:08:48;;;;;;;;;;;27.60;69.60;;;;;;5067421;28;20040;-43
2021/07/19 04:11:18;;;;;;;2.45;1.67;;;27.60;69.50;;;;;;5085001;28;19908;-42
2021/07/19 04:13:44;;;;;;;1.40;1.30;;;27.60;69.50;;;;;;5066977;28;20507;-42
2021/07/19 04:16:14;;;;;;;2.03;1.43;;;27.60;69.50;;;;;;5067151;28;20024;-42
2021/07/19 04:18:41;;;;;;;2.10;1.30;;;27.60;69.50;;;;;;5084846;28;20261;-42
2021/07/19 04:21:07;;;;;;;2.75;1.45;;;27.60;69.50;;;;;;5084669;28;20044;-42
2021/07/19 04:23:33;;;;;;;3.53;1.70;;;27.60;69.50;;;;;;5066785;28;20036;-42
2021/07/19 04:25:59;;;;;;;1.50;1.40;;;27.60;69.50;;;;;;5082059;28;20028;-42
2021/07/19 04:28:25;;;;;;;2.07;1.80;;;27.60;69.40;;;;;;5086909;28;20120;-42
2021/07/19 04:30:51;;;;;;;2.47;1.40;;;27.60;69.50;;;;;;5099245;28;20500;-42
2021/07/19 04:33:22;;;;;;;1.70;1.48;;;27.60;69.50;;;;;;5084313;28;20047;-42
2021/07/19 04:35:49;;;;;;;1.83;1.45;;;27.50;69.30;;;;;;5084482;28;20033;-42
2021/07/19 04:38:15;;;;;;;;;;;27.50;69.50;;;;;;5085240;28;20021;-42
2021/07/19 04:40:44;;;;;;;2.10;1.30;;;27.50;69.20;;;;;;5084597;28;19965;-42
2021/07/19 04:43:10;;;;;;;2.53;1.60;;;27.50;69.20;;;;;;5084344;28;20094;-42
2021/07/19 04:45:36;;;;;;;2.20;1.60;;;27.50;69.50;;;;;;5088320;28;20016;-42
2021/07/19 04:48:03;;;;;;;1.70;1.60;;;27.50;69.60;;;;;;5084443;28;20204;-42
2021/07/19 04:50:29;;;;;;;1.87;1.60;;;27.50;69.50;;;;;;5084389;28;20055;-42
2021/07/19 04:52:55;;;;;;;1.67;1.43;;;27.50;69.60;;;;;;5084083;28;20031;-43
2021/07/19 04:55:22;;;;;;;2.60;1.63;;;27.50;69.60;;;;;;5066185;28;20261;-42
2021/07/19 04:57:50;;;;;;;2.05;1.52;;;27.40;69.70;;;;;;5066024;28;20044;-42
2021/07/19 05:00:16;;;;;;;2.33;1.73;;;27.40;69.50;;;;;;5084882;28;20056;-42
2021/07/19 05:02:42;;;;;;;2.60;1.63;;;27.40;69.50;;;;;;5089250;28;20047;-42
2021/07/19 05:05:11;;;;;;;1.63;1.52;;;27.40;69.50;;;;;;5083641;28;20718;-43
2021/07/19 05:07:37;;;;;;;2.20;1.40;;;27.40;69.60;;;;;;5084080;28;20055;-42
2021/07/19 05:10:04;;;;;;;2.97;1.10;;;27.40;69.40;;;;;;5065919;28;20413;-42
2021/07/19 05:12:31;;;;;;;2.03;1.50;;;27.40;69.60;;;;;;5065627;28;20257;-42
2021/07/19 05:15:00;;;;;;;1.88;1.35;;;27.40;69.60;;;;;;5083937;28;20119;-42
2021/07/19 05:17:29;;;;;;;3.00;1.25;;;27.40;69.60;;;;;;5065572;28;20027;-43
2021/07/19 05:19:56;;;;;;;2.25;1.30;;;27.30;69.40;;;;;;5071315;28;20354;-42
2021/07/19 05:22:22;;;;;;;1.83;1.30;;;27.30;69.30;;;;;;5103744;28;20047;-43
2021/07/19 05:24:48;;;;;;;1.63;1.53;;;27.30;69.50;;;;;;5103934;28;20043;-42
2021/07/19 05:27:15;;;;;;;1.90;1.30;;;27.30;69.30;;;;;;5103909;28;20027;-42
2021/07/19 05:29:41;;;;;;;;;;;27.30;69.30;;;;;;5104282;28;20040;-43
2021/07/19 05:32:08;;;;;;;2.13;1.50;;;27.30;69.30;;;;;;5103405;28;19911;-42
2021/07/19 05:34:35;;;;;;;1.60;1.50;;;27.30;69.40;;;;;;5085586;28;20020;-42
2021/07/19 05:37:01;;;;;;;1.80;1.42;;;27.30;69.30;;;;;;5103661;28;20024;-42
2021/07/19 05:39:27;;;;;;;2.38;1.65;;;27.20;69.20;;;;;;5103715;28;20036;-42
2021/07/19 05:41:53;;;;;;;1.95;1.50;;;27.20;69.20;;;;;;5103592;28;20048;-43
2021/07/19 05:44:20;;;;;;;1.70;1.35;;;27.20;69.30;;;;;;5102530;28;20062;-42
2021/07/19 05:46:46;;;;;;;1.37;1.27;;;27.20;69.20;;;;;;5103589;28;20424;-43
2021/07/19 05:49:12;;;;;;;1.73;1.40;;;27.20;69.20;;;;;;5103217;28;20107;-42
2021/07/19 05:51:38;;;;;;;2.38;1.50;;;27.20;69.20;;;;;;5103449;28;20024;-42
2021/07/19 05:54:04;;;;;;;1.90;1.40;;;27.20;69.20;;;;;;5103149;28;20036;-42
2021/07/19 05:56:34;;;;;;;1.33;1.20;;;27.20;69.30;;;;;;5103377;28;20050;-42
2021/07/19 05:59:00;;;;;;;2.08;1.38;;;27.20;69.40;;;;;;5102989;28;20060;-42
2021/07/19 06:01:27;;;;;;;1.63;1.45;;;27.10;69.30;;;;;;5073790;28;20082;-42
2021/07/19 06:03:53;;;;;;;2.20;1.20;;;27.10;69.40;;;;;;5082700;28;20047;-42
2021/07/19 06:06:19;;;;;;;2.87;1.40;;;27.10;69.40;;;;;;5082829;28;20433;-42
2021/07/19 06:08:45;;;;;;;2.00;1.50;;;27.10;69.40;;;;;;5082752;28;20032;-46
2021/07/19 06:11:11;;;;;;;2.40;1.33;;;27.10;69.60;;;;;;5083016;28;20021;-42
2021/07/19 06:13:38;;;;;;;2.15;1.58;;;27.10;69.50;;;;;;5082551;28;20021;-42
2021/07/19 06:16:04;;;;;;;1.48;1.38;;;27.10;69.50;;;;;;5082599;28;20028;-42
2021/07/19 06:18:30;;;;;;;1.25;1.15;;;27.10;69.60;;;;;;5082091;28;20793;-42
2021/07/19 06:20:56;;;;;;;2.27;1.20;;;27.10;69.60;;;;;;5082734;28;20032;-43
2021/07/19 06:23:23;;;;;;;2.00;1.37;;;27.10;69.50;;;;;;5082514;28;20045;-42
2021/07/19 06:25:51;;;;;;;1.73;1.23;;;27.10;69.60;;;;;;5092742;28;20492;-42
2021/07/19 06:28:17;;;;;;;1.65;1.25;;;27.10;69.60;;;;;;5102756;28;20024;-43
2021/07/19 06:30:43;;;;;;;1.27;1.17;;;27.10;69.50;;;;;;5102572;28;20039;-42
2021/07/19 06:33:09;;;;;;;3.13;1.50;;;27.00;69.40;;;;;;5102569;28;20016;-43
2021/07/19 06:35:35;;;;;;;2.07;1.53;;;27.00;69.30;;;;;;5103065;28;20032;-42
2021/07/19 06:38:01;;;;;;;2.70;1.30;;;27.00;69.40;;;;;;5102803;28;20783;-43
2021/07/19 06:40:28;;;;;;;1.98;1.50;;;27.00;69.20;;;;;;5102766;28;20081;-42
2021/07/19 06:42:54;;;;;;;1.40;1.30;;;27.00;69.30;;;;;;5102561;28;20080;-42
2021/07/19 06:45:20;;;;;;;2.20;1.33;;;27.00;69.30;;;;;;5102454;28;20028;-43
2021/07/19 06:47:46;;;;;;;2.63;1.30;;;27.00;69.30;;;;;;5102411;28;20046;-42
2021/07/19 06:50:12;;;;;;;1.30;1.20;;;27.00;69.40;;;;;;5102662;28;20055;-42
2021/07/19 06:52:39;;;;;;;1.73;1.30;;;27.00;69.30;;;;;;5102811;28;20039;-42
2021/07/19 06:55:06;;;;;;;;;;;27.00;69.40;;;;;;5102752;28;20265;-42
2021/07/19 06:57:32;;;;;;;2.15;1.52;;;26.90;69.20;;;;;;5102490;28;20371;-43
2021/07/19 06:59:59;;;;;;;1.73;1.30;;;26.90;69.40;;;;;;5102560;28;20046;-42
2021/07/19 07:02:25;;;;;;;2.55;1.40;;;27.00;69.30;;;;;;5100819;28;20078;-42
2021/07/19 07:04:51;;;;;;;1.40;1.25;;;26.90;69.50;;;;;;5102271;28;20078;-42
2021/07/19 07:07:18;;;;;;;2.33;1.42;;;26.90;69.60;;;;;;5102677;28;20025;-42
2021/07/19 07:09:44;;;;;;;1.50;1.30;;;26.90;69.50;;;;;;5084480;28;20040;-42
2021/07/19 07:12:10;;;;;;;2.17;1.60;;;26.90;69.70;;;;;;5102149;28;20087;-42
2021/07/19 07:14:36;;;;;;;1.40;1.10;;;26.90;69.60;;;;;;5102155;28;20055;-42
2021/07/19 07:17:02;;;;;;;1.50;1.30;;;26.90;69.70;;;;;;5102503;28;20020;-42
2021/07/19 07:19:28;;;;;;;2.07;1.50;;;26.90;69.70;;;;;;5102403;28;20027;-42
2021/07/19 07:21:54;;;;;;;1.38;1.27;;;26.90;69.80;;;;;;5102381;28;20473;-42
2021/07/19 07:24:21;;;;;;;1.75;1.48;;;26.90;69.80;;;;;;5102126;28;20052;-42
2021/07/19 07:26:47;;;;;;;1.20;1.10;;;26.90;69.90;;;;;;5102337;28;20026;-42
2021/07/19 07:29:13;;;;;;;1.98;1.40;;;26.80;69.80;;;;;;5104470;28;20031;-42
2021/07/19 07:31:39;;;;;;;1.93;1.40;;;26.80;69.60;;;;;;5105980;28;20115;-43
2021/07/19 07:34:05;;;;;;;3.20;1.23;;;26.80;69.70;;;;;;5105845;28;20059;-42
2021/07/19 07:36:33;;;;;;;1.60;1.40;;;26.80;69.70;;;;;;5106249;28;20031;-42
2021/07/19 07:39:01;;;;;;;1.95;1.30;;;26.80;69.60;;;;;;5105965;28;20039;-42
2021/07/19 07:41:29;;;;;;;;;;;26.80;69.60;;;;;;5088229;28;20054;-42
2021/07/19 07:43:55;;;;;;;;;;;26.80;69.60;;;;;;5106291;28;20405;-42
2021/07/19 07:46:22;;;;;;;2.33;1.00;;;26.80;69.60;;;;;;5105780;28;19914;-43
2021/07/19 07:48:52;;;;;;;1.58;1.30;;;26.80;69.60;;;;;;5105780;28;20047;-42
2021/07/19 07:51:18;;;;;;;1.55;1.45;;;26.70;69.70;;;;;;5105629;28;20024;-42
2021/07/19 07:53:45;;;;;;;1.50;1.23;;;26.70;69.50;;;;;;5105675;28;20040;-42
2021/07/19 07:56:11;;;;;;;1.40;1.30;;;26.70;69.60;;;;;;5105403;28;20104;-42
2021/07/19 07:58:38;;;;;;;1.60;1.10;;;26.70;69.60;;;;;;5105399;28;20044;-42
2021/07/19 08:01:04;;;;;;;;;;;26.70;69.60;;;;;;5106028;28;20380;-44
2021/07/19 08:03:30;;;;;;;1.70;1.30;;;26.70;69.60;;;;;;5105658;28;20681;-42
2021/07/19 08:05:56;;;;;;;1.55;1.30;;;26.70;69.60;;;;;;5105353;28;20799;-43
2021/07/19 08:08:23;;;;;;;1.50;1.40;;;26.70;69.70;;;;;;5105453;28;20767;-42
2021/07/19 08:10:49;;;;;;;2.65;1.25;;;26.70;69.60;;;;;;5105498;28;20028;-43
2021/07/19 08:13:15;;;;;;;1.50;1.23;;;26.70;69.70;;;;;;5105409;28;20044;-43
2021/07/19 08:15:41;;;;;;;3.27;1.40;;;26.70;69.90;;;;;;5105114;28;20087;-42
2021/07/19 08:18:07;;;;;;;1.30;1.20;;;26.70;69.80;;;;;;5105377;28;20028;-42
2021/07/19 08:20:34;;;;;;;2.30;1.80;;;26.70;70.10;;;;;;5105436;28;20059;-42
2021/07/19 08:23:00;;;;;;;1.70;1.40;;;26.70;70.00;;;;;;5104929;28;20027;-42
2021/07/19 08:25:26;;;;;;;1.95;1.50;;;26.70;70.00;;;;;;5104972;28;20035;-42
2021/07/19 08:27:52;;;;;;;1.67;1.30;;;26.60;69.90;;;;;;5105060;28;20028;-42
2021/07/19 08:30:18;;;;;;;2.17;1.33;;;26.60;70.00;;;;;;5105049;28;20032;-42
2021/07/19 08:32:46;;;;;;;1.57;1.40;;;26.60;70.10;;;;;;5104971;28;20024;-42
2021/07/19 08:35:12;;;;;;;1.95;1.42;;;26.70;70.00;;;;;;5104718;28;20331;-42
2021/07/19 08:37:39;;;;;;;0.88;0.88;;;26.60;69.80;;;;;;5104902;28;20016;-43
2021/07/19 08:40:06;;;;;;;1.75;1.30;;;26.60;69.80;;;;;;5104462;28;20094;-42
2021/07/19 08:42:34;;;;;;;1.63;1.30;;;26.60;69.80;;;;;;5104734;28;20024;-42
2021/07/19 08:45:01;;;;;;;2.08;1.40;;;26.60;69.80;;;;;;5104545;28;20032;-42
2021/07/19 08:47:27;;;;;;;;;;;26.60;69.70;;;;;;5105154;28;20032;-42
2021/07/19 08:49:53;;;;;;;1.60;1.40;;;26.60;69.90;;;;;;5104499;28;19971;-43
2021/07/19 08:52:19;;;;;;;1.77;1.30;;;26.60;69.70;;;;;;5086641;28;20100;-44
2021/07/19 08:54:47;;;;;;;1.40;1.30;;;26.60;69.80;;;;;;5069878;28;20074;-42
2021/07/19 08:57:14;;;;;;;1.30;1.13;;;26.60;69.90;;;;;;5082481;28;20382;-42
2021/07/19 08:59:40;;;;;;;1.40;1.30;;;26.60;69.80;;;;;;5084351;28;20051;-42
2021/07/19 09:02:10;;;;;;;1.53;1.30;;;26.60;69.70;;;;;;5048861;28;20049;-42
2021/07/19 09:04:39;;;;;;;1.40;1.27;;;26.60;69.90;;;;;;5044298;28;20018;-42
2021/07/19 09:07:06;;;;;;;1.50;1.17;;;26.50;69.70;;;;;;5043937;28;20029;-42
2021/07/19 09:09:33;;;;;;;2.95;1.27;;;26.60;69.90;;;;;;5043982;28;20056;-42
2021/07/19 09:12:01;;;;;;;1.52;1.27;;;26.50;69.70;;;;;;5073957;28;20051;-41
2021/07/19 09:14:28;;;;;;;2.15;1.50;;;26.50;69.80;;;;;;5083964;28;20101;-42
2021/07/19 09:16:54;;;;;;;;;;;26.50;69.70;;;;;;5084066;28;20801;-43
2021/07/19 09:19:27;;;;;;;1.58;1.23;;;26.50;69.80;;;;;;5083963;28;19908;-42
2021/07/19 09:21:58;;;;;;;1.42;1.25;;;26.50;69.90;;;;;;5079215;28;20032;-43
2021/07/19 09:24:29;;;;;;;1.67;1.52;;;26.50;70.20;;;;;;5048607;28;20052;-42
2021/07/19 09:26:55;;;;;;;1.70;1.25;;;26.50;70.10;;;;;;5063422;28;20800;-43
2021/07/19 09:29:23;;;;;;;2.38;1.48;;;26.50;70.10;;;;;;5062207;28;20041;-43
2021/07/19 09:31:59;;;;;;;1.63;1.50;;;26.50;70.20;;;;;;5065238;28;20033;-42
2021/07/19 09:34:27;;;;;;;2.92;1.73;;;26.50;70.20;;;;;;5063587;28;20371;-42
2021/07/19 09:37:13;;;;;;;1.77;1.40;;;26.50;70.20;;;;;;5063175;28;20091;-42
2021/07/19 09:39:54;;;;;;;1.77;1.40;;;26.40;70.20;;;;;;5063379;28;20182;-42
2021/07/19 09:42:22;;;;;;;1.33;1.23;;;26.40;70.00;;;;;;5063301;28;20028;-42
2021/07/19 09:44:53;;;;;;;1.98;1.58;;;26.40;69.90;;;;;;5063519;28;20051;-42
2021/07/19 09:47:19;;;;;;;1.58;1.33;;;26.50;70.00;;;;;;5062932;28;20080;-43
2021/07/19 09:49:45;;;;;;;2.25;1.30;;;26.40;70.00;;;;;;5063480;28;20033;-42
2021/07/19 09:52:12;;;;;;;1.30;1.20;;;26.40;69.80;;;;;;5062337;28;20025;-44
2021/07/19 09:54:43;;;;;;;1.20;1.10;;;26.40;69.90;;;;;;5063623;28;20029;-43
2021/07/19 09:57:09;;;;;;;1.30;1.20;;;26.40;69.90;;;;;;5071238;28;20044;-43
2021/07/19 09:59:55;;;;;;;1.30;1.20;;;26.40;69.90;;;;;;5103479;28;20109;-42
2021/07/19 10:02:37;;;;;;;1.38;1.27;;;26.40;69.80;;;;;;5103315;28;20089;-42
2021/07/19 10:05:08;;;;;;;1.77;1.30;;;26.40;69.80;;;;;;5103190;28;20496;-42
2021/07/19 10:07:35;;;;;;;1.20;1.10;;;26.40;70.00;;;;;;5102987;28;20175;-43
2021/07/19 10:10:06;;;;;;;1.27;1.17;;;26.40;69.80;;;;;;5103316;28;20111;-42
2021/07/19 10:12:33;;;;;;;1.30;1.20;;;26.40;69.90;;;;;;5102971;28;20020;-42
2021/07/19 10:15:01;;;;;;;1.90;1.33;;;26.40;69.90;;;;;;5084693;28;20056;-42
2021/07/19 10:17:27;;;;;;;1.50;1.40;;;26.40;70.00;;;;;;5067972;28;20035;-42
2021/07/19 10:19:53;;;;;;;1.50;1.30;;;26.40;69.90;;;;;;5068372;28;20024;-42
2021/07/19 10:22:19;;;;;;;2.90;1.20;;;26.40;70.10;;;;;;5068310;28;20032;-42
2021/07/19 10:24:46;;;;;;;1.33;1.20;;;26.40;70.10;;;;;;5102959;28;20030;-42
2021/07/19 10:27:20;;;;;;;2.43;1.30;;;26.30;70.00;;;;;;5102376;28;20509;-41
2021/07/19 10:29:47;;;;;;;2.15;1.50;;;26.30;70.00;;;;;;5102860;28;20284;-43
2021/07/19 10:32:17;;;;;;;1.30;1.17;;;26.30;70.20;;;;;;5102907;28;20024;-42
2021/07/19 10:34:46;;;;;;;1.63;1.38;;;26.30;70.30;;;;;;5102903;28;20451;-42
2021/07/19 10:37:21;;;;;;;1.65;1.40;;;26.30;70.30;;;;;;5068110;28;20062;-42
2021/07/19 10:39:50;;;;;;;1.15;1.05;;;26.30;71.00;;;;;;5084588;28;20032;-42
2021/07/19 10:42:16;;;;;;;1.40;1.30;;;26.30;70.30;;;;;;5102476;28;20503;-41
2021/07/19 10:44:43;;;;;;;1.90;1.30;;;26.30;70.30;;;;;;5068033;28;20028;-42
2021/07/19 10:47:15;;;;;;;1.48;1.38;;;26.30;70.30;;;;;;5084231;28;20032;-42
2021/07/19 10:49:43;;;;;;;1.65;1.48;;;26.30;70.20;;;;;;5102644;28;20040;-42
2021/07/19 10:52:12;;;;;;;2.65;1.38;;;26.30;70.10;;;;;;5084571;28;20032;-42
2021/07/19 10:54:50;;;;;;;1.80;1.40;;;26.30;70.10;;;;;;5102615;28;20032;-42
2021/07/19 10:57:17;;;;;;;2.42;1.33;;;26.20;70.20;;;;;;5102304;28;20457;-43
2021/07/19 10:59:45;;;;;;;2.00;1.40;;;26.30;70.20;;;;;;5102556;28;20024;-42
2021/07/19 11:02:25;;;;;;;1.63;1.30;;;26.20;70.30;;;;;;5084126;28;20028;-42
2021/07/19 11:04:51;;;;;;;1.48;1.38;;;26.30;70.60;;;;;;5105974;28;20028;-42
2021/07/19 11:07:17;;;;;;;1.92;1.67;;;26.20;70.60;;;;;;5088297;28;20034;-42
2021/07/19 11:09:43;;;;;;;1.40;1.30;;;26.20;70.50;;;;;;5106703;28;20060;-42
2021/07/19 11:12:16;;;;;;;1.60;1.40;;;26.20;70.60;;;;;;5088347;28;20062;-44
2021/07/19 11:14:48;;;;;;;1.48;1.38;;;26.20;70.70;;;;;;5106494;28;20062;-42
2021/07/19 11:17:17;;;;;;;1.63;1.52;;;26.20;70.50;;;;;;5105998;28;20048;-42
2021/07/19 11:19:43;;;;;;;1.45;1.25;;;26.20;70.20;;;;;;5105616;28;20024;-42
2021/07/19 11:22:23;;;;;;;1.45;1.35;;;26.20;70.30;;;;;;5106295;28;20156;-42
2021/07/19 11:24:54;;;;;;;1.77;1.33;;;26.20;70.30;;;;;;5106335;28;20032;-43
2021/07/19 11:27:36;;;;;;;1.50;1.40;;;26.20;70.30;;;;;;5106060;28;20036;-43
2021/07/19 11:30:05;;;;;;;1.58;1.40;;;26.20;70.30;;;;;;5106143;28;20039;-42
2021/07/19 11:32:32;;;;;;;1.50;1.40;;;26.20;70.30;;;;;;5106074;28;20016;-42
2021/07/19 11:35:24;;;;;;;1.50;1.40;;;26.20;70.20;;;;;;5106136;28;20032;-42
2021/07/19 11:37:52;;;;;;;1.80;1.48;;;26.20;70.20;;;;;;5102001;28;20044;-43
2021/07/19 11:40:28;;;;;;;1.55;1.40;;;26.20;70.30;;;;;;5105860;28;20022;-42
2021/07/19 11:42:55;;;;;;;1.50;1.38;;;26.20;70.30;;;;;;5106103;28;20031;-43
2021/07/19 11:45:21;;;;;;;2.35;1.50;;;26.20;70.20;;;;;;5105882;28;20024;-42
2021/07/19 11:47:52;;;;;;;1.38;1.25;;;26.10;70.20;;;;;;5105512;28;20024;-42
2021/07/19 11:50:22;;;;;;;2.70;1.25;;;26.20;70.20;;;;;;5106004;28;20032;-42
2021/07/19 11:52:50;;;;;;;1.33;1.23;;;26.20;70.30;;;;;;5087276;28;20023;-42
2021/07/19 11:55:17;;;;;;;1.75;1.42;;;26.20;70.30;;;;;;5105618;28;20036;-43
2021/07/19 11:57:45;;;;;;;1.50;1.40;;;26.10;70.30;;;;;;5105266;28;20111;-42
2021/07/19 12:00:13;;;;;;;1.60;1.50;;;26.10;70.30;;;;;;5105638;28;20032;-42
2021/07/19 12:02:39;;;;;;;1.40;1.30;;;26.10;70.20;;;;;;5105224;28;20066;-42
2021/07/19 12:05:12;;;;;;;1.80;1.45;;;26.10;70.30;;;;;;5105649;28;20043;-42
2021/07/19 12:07:38;;;;;;;1.70;1.60;;;26.10;70.20;;;;;;5087965;28;20048;-42
2021/07/19 12:10:05;;;;;;;1.53;1.43;;;26.10;70.20;;;;;;5105574;28;20024;-43
2021/07/19 12:12:31;;;;;;;1.45;1.35;;;26.10;70.30;;;;;;5105450;28;20020;-42
2021/07/19 12:15:01;;;;;;;1.20;1.10;;;26.10;70.30;;;;;;5104225;28;20036;-42
2021/07/19 12:17:32;;;;;;;1.10;1.00;;;26.10;70.30;;;;;;5105197;28;20063;-43
2021/07/19 12:19:58;;;;;;;1.60;1.50;;;26.10;70.30;;;;;;5105089;28;20102;-42
2021/07/19 12:22:25;;;;;;;1.57;1.47;;;26.10;70.30;;;;;;5105298;28;20043;-42
2021/07/19 12:25:00;;;;;;;2.03;1.50;;;26.10;70.30;;;;;;5105275;28;20265;-42
2021/07/19 12:27:26;;;;;;;1.38;1.27;;;26.10;70.30;;;;;;5105286;28;20035;-42
2021/07/19 12:29:52;;;;;;;1.52;1.35;;;26.10;70.30;;;;;;5104632;28;20717;-42
2021/07/19 12:32:19;;;;;;;1.50;1.40;;;26.10;70.30;;;;;;5088040;28;20055;-42
2021/07/19 12:34:45;;;;;;;1.83;1.47;;;26.10;70.30;;;;;;5104867;28;20036;-43
2021/07/19 12:37:18;;;;;;;1.60;1.50;;;26.10;70.30;;;;;;5104676;28;20031;-42
2021/07/19 12:39:50;;;;;;;1.67;1.58;;;26.10;70.30;;;;;;5104586;28;20032;-42
2021/07/19 12:42:18;;;;;;;1.58;1.48;;;26.10;70.30;;;;;;5104744;28;20128;-42
2021/07/19 12:44:45;;;;;;;1.90;1.80;;;26.10;70.40;;;;;;5086376;28;20114;-42
2021/07/19 12:47:16;;;;;;;2.13;1.50;;;26.10;70.30;;;;;;5086358;28;20039;-42
2021/07/19 12:49:42;;;;;;;1.60;1.50;;;26.10;70.30;;;;;;5086270;28;20040;-42
2021/07/19 12:52:17;;;;;;;1.63;1.27;;;26.10;70.30;;;;;;5104665;28;20091;-42